TimeCEST,TemperatureF,Dew PointF,Humidity,Sea Level PressureIn,VisibilityMPH,Wind Direction,Wind SpeedMPH,Gust SpeedMPH,PrecipitationIn,Events,Conditions,WindDirDegrees,DateUTC
12:25 AM,44.6,42.8,93,30.01,-9999.0,East,5.8,-,N/A,,Overcast,100,2013-10-11 22:25:00
12:55 AM,44.6,42.8,93,30.01,-9999.0,East,3.5,-,N/A,,Overcast,90,2013-10-11 22:55:00
1:25 AM,41.0,41.0,100,30.01,-9999.0,East,4.6,-,N/A,,Mist,80,2013-10-11 23:25:00
1:55 AM,41.0,41.0,100,30.01,-9999.0,East,5.8,-,N/A,,Mist,90,2013-10-11 23:55:00
2:00 AM,41,40,97,30.05,2,East,6.7,,,,Mist,90,2013-10-12 00:00:00
2:25 AM,41.0,41.0,100,30.04,-9999.0,East,5.8,-,N/A,,Mist,100,2013-10-12 00:25:00
2:55 AM,41.0,39.2,93,30.04,3.7,East,6.9,-,N/A,,Unknown,100,2013-10-12 00:55:00
3:25 AM,39.2,39.2,100,30.04,3.7,East,5.8,-,N/A,,Unknown,90,2013-10-12 01:25:00
3:55 AM,39.2,37.4,93,30.04,3.7,East,5.8,-,N/A,,Unknown,90,2013-10-12 01:55:00
4:25 AM,37.4,37.4,100,30.06,3.7,East,5.8,-,N/A,,Unknown,100,2013-10-12 02:25:00
4:55 AM,39.2,37.4,93,30.06,3.7,East,6.9,-,N/A,,Unknown,90,2013-10-12 02:55:00
5:25 AM,39.2,37.4,93,30.06,4.3,East,5.8,-,N/A,,Unknown,90,2013-10-12 03:25:00
5:55 AM,37.4,37.4,100,30.06,4.3,East,5.8,-,N/A,,Unknown,80,2013-10-12 03:55:00
6:25 AM,37.4,35.6,93,30.06,3.7,East,3.5,-,N/A,,Unknown,80,2013-10-12 04:25:00
6:55 AM,37.4,35.6,93,30.06,1.7,NNE,5.8,-,N/A,,Mist,20,2013-10-12 04:55:00
7:25 AM,35.6,35.6,100,30.06,0.2,ENE,6.9,-,N/A,Fog,Fog,60,2013-10-12 05:25:00
7:55 AM,35.6,35.6,100,30.06,0.2,ENE,6.9,-,N/A,,Unknown,70,2013-10-12 05:55:00
8:00 AM,36,36,100,30.10,0,ENE,6.7,,,Rain,Rain Showers,70,2013-10-12 06:00:00
8:25 AM,37.4,37.4,100,30.06,0.1,ENE,8.1,-,N/A,,Unknown,70,2013-10-12 06:25:00
8:55 AM,39.2,39.2,100,30.09,0.1,NE,8.1,-,N/A,,Unknown,50,2013-10-12 06:55:00
9:25 AM,39.2,39.2,100,30.09,0.1,ENE,5.8,-,N/A,Fog,Fog,70,2013-10-12 07:25:00
9:55 AM,39.2,39.2,100,30.09,0.1,ENE,3.5,-,N/A,Fog,Fog,70,2013-10-12 07:55:00
10:25 AM,41.0,41.0,100,30.09,0.7,ESE,5.8,-,N/A,,Overcast,110,2013-10-12 08:25:00
10:55 AM,41.0,41.0,100,30.09,2.2,ENE,5.8,-,N/A,,Overcast,70,2013-10-12 08:55:00
11:00 AM,41,41,99,30.14,2,ENE,6.7,,,Fog,Fog,70,2013-10-12 09:00:00
11:25 AM,41.0,41.0,100,30.09,1.5,NNE,5.8,-,N/A,,Overcast,20,2013-10-12 09:25:00
11:55 AM,42.8,42.8,100,30.09,2.2,ENE,8.1,-,N/A,,Overcast,60,2013-10-12 09:55:00
12:25 PM,44.6,42.8,93,30.09,3.1,NE,5.8,-,N/A,,Overcast,40,2013-10-12 10:25:00
12:55 PM,42.8,41.0,93,30.09,-9999.0,NE,3.5,-,N/A,,Overcast,40,2013-10-12 10:55:00
1:25 PM,44.6,42.8,93,30.09,3.1,NNE,5.8,-,N/A,,Overcast,30,2013-10-12 11:25:00
1:55 PM,46.4,42.8,87,30.06,4.3,ENE,5.8,-,N/A,,Mostly Cloudy,60,2013-10-12 11:55:00
2:00 PM,46,43,84,30.10,4,NNE,8.9,,,,Mist,20,2013-10-12 12:00:00
2:25 PM,46.4,42.8,87,30.06,4.3,NNE,5.8,-,N/A,,Overcast,30,2013-10-12 12:25:00
2:55 PM,46.4,42.8,87,30.04,5.6,ENE,5.8,-,N/A,,Mostly Cloudy,60,2013-10-12 12:55:00
3:25 PM,46.4,42.8,87,30.04,5.6,East,4.6,-,N/A,,Mostly Cloudy,80,2013-10-12 13:25:00
3:55 PM,46.4,42.8,87,30.04,5.0,East,5.8,-,N/A,,Mostly Cloudy,90,2013-10-12 13:55:00
4:25 PM,46.4,42.8,87,30.04,5.0,SE,3.5,-,N/A,,Unknown,140,2013-10-12 14:25:00
4:55 PM,46.4,42.8,87,30.04,5.0,Variable,2.3,-,N/A,,Unknown,0,2013-10-12 14:55:00
5:00 PM,46,42,83,30.05,5,South,2.2,,,,Mist,170,2013-10-12 15:00:00
5:25 PM,46.4,42.8,87,30.01,4.3,South,2.3,-,N/A,,Unknown,190,2013-10-12 15:25:00
5:55 PM,44.6,42.8,93,29.98,4.3,SW,5.8,-,N/A,,Unknown,220,2013-10-12 15:55:00
6:25 PM,44.6,42.8,93,30.01,3.7,SW,3.5,-,N/A,,Unknown,220,2013-10-12 16:25:00
6:55 PM,44.6,42.8,93,30.01,4.3,Variable,1.2,-,N/A,,Scattered Clouds,0,2013-10-12 16:55:00
7:25 PM,44.6,42.8,93,30.01,4.3,Variable,1.2,-,N/A,,Scattered Clouds,0,2013-10-12 17:25:00
7:55 PM,44.6,42.8,93,30.01,-9999.0,SW,3.5,-,N/A,,Mist,220,2013-10-12 17:55:00
8:00 PM,44,43,97,30.04,3,SW,4.5,,,,Mist,230,2013-10-12 18:00:00
8:25 PM,44.6,42.8,93,30.01,2.2,South,5.8,-,N/A,,Mist,190,2013-10-12 18:25:00
8:55 PM,44.6,42.8,93,30.01,-9999.0,SW,5.8,-,N/A,,Mist,220,2013-10-12 18:55:00
9:25 PM,44.6,42.8,93,30.01,-9999.0,SSW,4.6,-,N/A,,Mostly Cloudy,200,2013-10-12 19:25:00
9:55 PM,44.6,42.8,93,30.01,2.5,SSW,6.9,-,N/A,,Mostly Cloudy,200,2013-10-12 19:55:00
10:25 PM,44.6,42.8,93,30.01,-9999.0,SSW,5.8,-,N/A,,Mostly Cloudy,210,2013-10-12 20:25:00
10:55 PM,44.6,42.8,93,30.01,1.7,SSW,4.6,-,N/A,,Light Drizzle,210,2013-10-12 20:55:00
11:00 PM,44,43,97,30.02,1,SSW,4.5,,,Rain,Light Drizzle,210,2013-10-12 21:00:00
11:25 PM,44.6,42.8,93,29.98,1.6,SSW,5.8,-,N/A,,Light Drizzle,210,2013-10-12 21:25:00
11:55 PM,44.6,42.8,93,29.98,1.7,SSW,8.1,-,N/A,,Light Drizzle,200,2013-10-12 21:55:00